Weather History for Monett, MO

Change the Weather History Date:

Wednesday, April 24, 2013

  Actual Average (KJLN) Record (KJLN)
Temperature  
Mean Temperature 41 °F 61 °F  
Max Temperature 50 °F 73 °F 89 °F (1989)
Min Temperature 32 °F 50 °F 31 °F (2005)
Degree Days  
Heating Degree Days 24 6  
Month to date heating degree days 211  
Since 1 July heating degree days 3973  
Cooling Degree Days 0 2  
Month to date cooling degree days 32  
Year to date cooling degree days 42  
Moisture  
Dew Point 31 °F    
Average Humidity 74    
Maximum Humidity 100    
Minimum Humidity 40    
Precipitation  
Precipitation 0.00 in 0.18 in 1.59 in (1993)
Month to date precipitation 3.38  
Year to date precipitation 11.15  
Sea Level Pressure  
Sea Level Pressure 30.22 in    
Wind  
Wind Speed 9 mph (NW)    
Max Wind Speed 16 mph    
Max Gust Speed 23 mph    
Visibility 10 miles    
Events Rain , Snow , Thunderstorm    
T = Trace of Precipitation, MM = Missing Value Source: NWS Daily Summary

Daily Weather History Graph

Daily Weather History Graph

Search for Another Location

Airport:

Trip Planner

Search our weather history database for the weather conditions in past years. The results will help you decide how hot, cold, wet, or windy it might be!

Date:

Astronomy

Apr. 24, 2013 Rise Set
Actual Time 6:29 AM CDT 7:58 PM CDT
Civil Twilight 6:02 AM CDT 8:26 PM CDT
Nautical Twilight 5:29 AM CDT 8:59 PM CDT
Astronomical Twilight 4:55 AM CDT 9:33 PM CDT
Moon 7:03 PM CDT (4/24) 5:32 AM CDT (4/24)
Length of Visible Light 14h 23m
Length of Day
13h 29m
Waxing Gibbous, 98% of the Moon is Illuminated
Apr 24
Waxing Gibbous
Apr 25
Full
May 2
Last Quarter
May 9
New
May 17
First Quarter

Hourly Weather History & Observations

Time (CDT) Temp. Windchill Dew Point Humidity Pressure Visibility Wind Dir Wind Speed Gust Speed Precip Events Conditions
12:15 AM 33.8 °F 25.8 °F 33.8 °F 100% 30.11 in 10.0 mi NNW 10.4 mph - N/A   Overcast
12:35 AM 33.8 °F 25.3 °F 33.8 °F 100% 30.11 in 10.0 mi NNW 11.5 mph 17.3 mph N/A Thunderstorm Overcast
12:55 AM 33.8 °F 25.8 °F 33.8 °F 100% 30.11 in 10.0 mi NNW 10.4 mph 17.3 mph N/A   Overcast
1:15 AM 33.8 °F 26.4 °F 33.8 °F 100% 30.12 in 10.0 mi NNW 9.2 mph - N/A   Overcast
1:35 AM 33.8 °F 27.0 °F 33.8 °F 100% 30.14 in 10.0 mi NNW 8.1 mph - N/A   Overcast
1:55 AM 33.8 °F 26.4 °F 33.8 °F 100% 30.14 in 10.0 mi NW 9.2 mph - N/A   Overcast
2:15 AM 33.8 °F 25.8 °F 33.8 °F 100% 30.13 in 10.0 mi NW 10.4 mph - N/A   Overcast
2:35 AM 33.8 °F 25.3 °F 33.8 °F 100% 30.12 in 10.0 mi NW 11.5 mph - N/A   Overcast
2:55 AM 33.8 °F 25.3 °F 33.8 °F 100% 30.12 in 10.0 mi NW 11.5 mph - N/A   Overcast
3:15 AM 33.8 °F 25.8 °F 33.8 °F 100% 30.12 in 10.0 mi NW 10.4 mph - N/A   Overcast
3:35 AM 33.8 °F 24.8 °F 33.8 °F 100% 30.13 in 10.0 mi NW 12.7 mph - N/A   Overcast
3:55 AM 33.8 °F 26.4 °F 33.8 °F 100% 30.13 in 7.0 mi NNW 9.2 mph - N/A   Overcast
4:15 AM 33.8 °F 23.9 °F 33.8 °F 100% 30.16 in 5.0 mi NW 15.0 mph 23.0 mph N/A   Overcast
4:35 AM 33.8 °F 23.5 °F 32.0 °F 93% 30.18 in 5.0 mi NW 16.1 mph - N/A Rain Light Rain
4:55 AM 32.0 °F 24.2 °F 32.0 °F 100% 30.20 in 7.0 mi NW 9.2 mph - N/A Snow Light Snow
5:15 AM 32.0 °F 23.6 °F 32.0 °F 100% 30.20 in 10.0 mi NW 10.4 mph - N/A   Overcast
5:35 AM 32.0 °F 24.2 °F 32.0 °F 100% 30.19 in 10.0 mi NNW 9.2 mph - N/A   Overcast
5:55 AM 32.0 °F 23.0 °F 32.0 °F 100% 30.19 in 10.0 mi NW 11.5 mph 17.3 mph N/A   Overcast
6:15 AM 32.0 °F 23.6 °F 32.0 °F 100% 30.20 in 10.0 mi NNW 10.4 mph - N/A   Overcast
6:35 AM 32.0 °F 23.0 °F 32.0 °F 100% 30.20 in 10.0 mi NNW 11.5 mph - N/A   Overcast
6:55 AM 32.0 °F 24.2 °F 32.0 °F 100% 30.22 in 10.0 mi NW 9.2 mph - N/A   Overcast
7:15 AM 32.0 °F 24.2 °F 32.0 °F 100% 30.22 in 10.0 mi NNW 9.2 mph - N/A   Overcast
7:35 AM 32.0 °F 23.0 °F 32.0 °F 100% 30.23 in 10.0 mi NW 11.5 mph - N/A   Overcast
7:55 AM 33.8 °F 25.8 °F 32.0 °F 93% 30.23 in 10.0 mi North 10.4 mph - N/A   Overcast
8:15 AM 33.8 °F 25.8 °F 32.0 °F 93% 30.23 in 10.0 mi NNW 10.4 mph - N/A   Overcast
8:35 AM 33.8 °F 24.8 °F 32.0 °F 93% 30.23 in 10.0 mi NNW 12.7 mph 17.3 mph N/A   Overcast
8:55 AM 33.8 °F 25.3 °F 32.0 °F 93% 30.23 in 10.0 mi NW 11.5 mph - N/A   Overcast
9:15 AM 33.8 °F 25.3 °F 32.0 °F 93% 30.23 in 10.0 mi NNW 11.5 mph - N/A   Overcast
9:35 AM 37.4 °F 31.4 °F 32.0 °F 81% 30.23 in 10.0 mi NW 8.1 mph - N/A   Mostly Cloudy
9:55 AM 35.6 °F 29.2 °F 32.0 °F 87% 30.23 in 10.0 mi NW 8.1 mph - N/A   Overcast
10:15 AM 35.6 °F 29.2 °F 30.2 °F 81% 30.23 in 10.0 mi NNW 8.1 mph - N/A   Mostly Cloudy
10:35 AM 37.4 °F 30.8 °F 30.2 °F 75% 30.23 in 10.0 mi NNW 9.2 mph - N/A   Scattered Clouds
10:55 AM 39.2 °F 34.2 °F 30.2 °F 70% 30.23 in 10.0 mi NW 6.9 mph 16.1 mph N/A   Scattered Clouds
11:15 AM 41.0 °F 37.1 °F 30.2 °F 65% 30.25 in 10.0 mi WNW 5.8 mph - N/A   Scattered Clouds
11:35 AM 41.0 °F 34.7 °F 30.2 °F 65% 30.26 in 10.0 mi West 10.4 mph - N/A   Clear
11:55 AM 42.8 °F 38.0 °F 28.4 °F 57% 30.26 in 10.0 mi NW 8.1 mph - N/A   Clear
12:15 PM 42.8 °F 37.5 °F 26.6 °F 53% 30.26 in 10.0 mi NNW 9.2 mph 18.4 mph N/A   Clear
12:35 PM 44.6 °F 40.2 °F 28.4 °F 53% 30.27 in 10.0 mi West 8.1 mph - N/A   Clear
12:55 PM 44.6 °F 42.2 °F 28.4 °F 53% 30.27 in 10.0 mi WNW 4.6 mph - N/A   Clear
1:15 PM 44.6 °F 41.4 °F 28.4 °F 53% 30.26 in 10.0 mi West 5.8 mph 9.2 mph N/A   Clear
1:35 PM 44.6 °F 39.7 °F 26.6 °F 49% 30.25 in 10.0 mi North 9.2 mph - N/A   Clear
1:55 PM 44.6 °F 41.4 °F 30.2 °F 57% 30.23 in 10.0 mi West 5.8 mph - N/A   Clear
2:15 PM 46.4 °F 43.5 °F 30.2 °F 53% 30.25 in 10.0 mi WSW 5.8 mph - N/A   Clear
2:35 PM 46.4 °F 41.9 °F 30.2 °F 53% 30.25 in 10.0 mi West 9.2 mph - N/A   Clear
2:55 PM 46.4 °F 41.9 °F 30.2 °F 53% 30.25 in 10.0 mi NW 9.2 mph - N/A   Clear
3:15 PM 48.2 °F - 30.2 °F 50% 30.25 in 10.0 mi WNW 8.1 mph - N/A   Clear
3:35 PM 48.2 °F - 26.6 °F 43% 30.25 in 10.0 mi NW 8.1 mph - N/A   Clear
3:55 PM 50.0 °F - 26.6 °F 40% 30.25 in 10.0 mi West 9.2 mph - N/A   Clear
4:15 PM 50.0 °F - 26.6 °F 40% 30.23 in 10.0 mi NW 5.8 mph - N/A   Clear
4:35 PM 50.0 °F - 28.4 °F 43% 30.23 in 10.0 mi WNW 8.1 mph - N/A   Clear
4:55 PM 50.0 °F - 28.4 °F 43% 30.23 in 10.0 mi NW 6.9 mph - N/A   Clear
5:15 PM 50.0 °F - 28.4 °F 43% 30.23 in 10.0 mi NW 5.8 mph - N/A   Clear
5:35 PM 50.0 °F - 28.4 °F 43% 30.23 in 10.0 mi NNW 5.8 mph - N/A   Clear
5:55 PM 50.0 °F - 28.4 °F 43% 30.23 in 10.0 mi WNW 6.9 mph - N/A   Clear
6:15 PM 50.0 °F - 28.4 °F 43% 30.23 in 10.0 mi NW 6.9 mph - N/A   Clear
6:35 PM 50.0 °F - 30.2 °F 47% 30.24 in 10.0 mi NW 8.1 mph - N/A   Clear
6:55 PM 48.2 °F - 30.2 °F 50% 30.23 in 10.0 mi NW 6.9 mph - N/A   Clear
7:15 PM 48.2 °F - 28.4 °F 46% 30.24 in 10.0 mi NNW 5.8 mph - N/A   Clear
7:35 PM 46.4 °F 44.3 °F 28.4 °F 50% 30.25 in 10.0 mi NW 4.6 mph - N/A   Clear
7:55 PM 46.4 °F 45.2 °F 28.4 °F 50% 30.25 in 10.0 mi NNW 3.5 mph - N/A   Clear
8:15 PM 44.6 °F - 28.4 °F 53% 30.25 in 10.0 mi Calm Calm - N/A   Clear
8:35 PM 41.0 °F - 30.2 °F 65% 30.25 in 10.0 mi Calm Calm - N/A   Clear
8:55 PM 42.8 °F - 28.4 °F 57% 30.26 in 10.0 mi Calm Calm - N/A   Clear
10:15 PM 37.4 °F - 30.2 °F 75% 30.28 in 10.0 mi Calm Calm - N/A   Clear
10:35 PM 37.4 °F 34.9 °F 30.2 °F 75% 30.28 in 10.0 mi SSW 3.5 mph - N/A   Clear
10:55 PM 37.4 °F 34.9 °F 30.2 °F 75% 30.29 in 10.0 mi SSW 3.5 mph - N/A   Clear
11:15 PM 37.4 °F - 30.2 °F 75% 30.30 in 10.0 mi Calm Calm - N/A   Clear
11:35 PM 35.6 °F 32.8 °F 30.2 °F 81% 30.30 in 10.0 mi South 3.5 mph - N/A   Clear
11:55 PM 35.6 °F 31.7 °F 30.2 °F 81% 30.30 in 10.0 mi South 4.6 mph - N/A   Clear